Terminal Aerodrome Forecast
Issued by NWS Riverton, WY

Home | Current Version | Previous Version | Text Only | Print | Product List | Glossary On
Versions: 1 2 3 4 5 6 7 8 9 10 11 12 13
000
FTUS45 KRIW 110329 AAB
TAFRIW
TAF AMD
KRIW 110329Z 1103/1124 05007KT P6SM BKN090
     FM111100 VRB05KT P6SM VCSH BKN050
     FM111400 28007KT P6SM SCT090=

USA.gov is the U.S. government's official web portal to all federal, state and local government web resources and services.